Time;durP1;ratioP1;P1;durP2;ratioP2;P2;SDS_P1;SDS_P2;PMS_P1;PMS_P2;Temp;Humidity;BMP_temperature;BMP_pressure;BME280_temperature;BME280_humidity;BME280_pressure;Samples;Min_cycle;Max_cycle;Signal;HPM_P1;HPM_P2
2023/12/06 00:01:05;;;;;;;2.15;1.30;;;;;;;6.48;98.89;97427.09;4192425;28;20205;-93
2023/12/06 00:03:09;;;;;;;1.60;1.00;;;;;;;6.45;98.08;97427.28;4193586;28;20217;-91
2023/12/06 00:05:12;;;;;;;2.85;1.30;;;;;;;6.48;98.05;97429.69;4187368;28;20252;-92
2023/12/06 00:07:15;;;;;;;2.70;1.10;;;;;;;6.51;99.17;97442.44;4178049;28;20829;-92
2023/12/06 00:09:17;;;;;;;4.88;1.20;;;;;;;6.51;99.07;97432.09;4191018;28;20754;-93
2023/12/06 00:11:21;;;;;;;1.92;0.90;;;;;;;6.50;98.80;97445.13;4189452;28;20217;-93
2023/12/06 00:13:24;;;;;;;1.80;1.05;;;;;;;6.52;99.40;97438.91;4183860;28;20244;-89
2023/12/06 00:15:28;;;;;;;2.38;1.50;;;;;;;6.53;98.72;97435.41;4188997;28;20230;-92
2023/12/06 00:17:32;;;;;;;1.67;1.00;;;;;;;6.54;98.64;97433.63;4186849;28;20656;-90
2023/12/06 00:19:35;;;;;;;1.60;1.02;;;;;;;6.55;99.48;97441.31;4193962;28;20670;-94
2023/12/06 00:21:38;;;;;;;1.88;1.20;;;;;;;6.52;98.80;97436.31;4173374;28;20216;-93
2023/12/06 00:23:41;;;;;;;1.65;1.00;;;;;;;6.50;99.45;97440.78;4189803;28;20205;-93
2023/12/06 00:25:43;;;;;;;1.30;0.70;;;;;;;6.47;99.59;97442.72;4187509;28;20750;-92
2023/12/06 00:27:47;;;;;;;2.70;1.20;;;;;;;6.48;99.16;97439.19;4188356;28;20275;-93
2023/12/06 00:29:50;;;;;;;2.08;1.27;;;;;;;6.51;99.95;97441.59;4186483;28;20208;-93
2023/12/06 00:31:55;;;;;;;2.30;1.20;;;;;;;6.53;98.60;97445.75;4187585;28;20310;-92
2023/12/06 00:33:58;;;;;;;1.58;1.02;;;;;;;6.56;99.50;97442.97;4172712;28;20223;-92
2023/12/06 00:36:01;;;;;;;1.50;0.98;;;;;;;6.60;99.60;97447.06;4187876;28;20258;-90
2023/12/06 00:38:05;;;;;;;1.30;0.80;;;;;;;6.62;98.93;97446.00;4186106;28;20296;-90
2023/12/06 00:40:08;;;;;;;1.42;1.00;;;;;;;6.64;98.65;97451.09;4184652;28;20248;-91
2023/12/06 00:42:12;;;;;;;1.80;1.00;;;;;;;6.67;98.52;97448.31;4176635;28;20734;-91
2023/12/06 00:44:15;;;;;;;1.88;0.95;;;;;;;6.67;99.31;97437.94;4187323;28;20230;-93
2023/12/06 00:46:18;;;;;;;1.90;1.00;;;;;;;6.68;99.02;97447.38;4170041;28;20207;-91
2023/12/06 00:48:23;;;;;;;1.60;1.00;;;;;;;6.70;99.26;97450.72;4171581;28;20211;-92
2023/12/06 00:50:26;;;;;;;2.13;1.08;;;;;;;6.71;99.13;97449.78;4187859;28;20618;-90
2023/12/06 00:52:30;;;;;;;2.50;1.00;;;;;;;6.67;98.57;97456.91;4174017;28;20206;-93
2023/12/06 00:54:33;;;;;;;1.63;0.90;;;;;;;6.69;98.42;97465.44;4187599;28;20224;-89
2023/12/06 00:56:36;;;;;;;1.60;1.00;;;;;;;6.71;98.25;97463.56;4182322;28;20207;-92
2023/12/06 00:58:39;;;;;;;1.70;1.00;;;;;;;6.74;98.52;97462.56;4171934;28;20261;-92
2023/12/06 01:00:42;;;;;;;2.55;1.08;;;;;;;6.74;98.29;97455.59;4187599;28;20264;-91
2023/12/06 01:02:46;;;;;;;2.50;1.55;;;;;;;6.71;98.25;97466.16;4184553;28;20214;-93
2023/12/06 01:04:51;;;;;;;2.63;1.85;;;;;;;6.68;97.38;97462.94;4188440;28;20205;-92
2023/12/06 01:06:55;;;;;;;2.55;1.33;;;;;;;6.65;98.48;97463.13;4191319;28;20654;-90
2023/12/06 01:08:58;;;;;;;2.00;1.20;;;;;;;6.65;98.80;97461.34;4185716;28;20206;-90
2023/12/06 01:11:00;;;;;;;1.67;1.10;;;;;;;6.66;98.73;97462.19;4166255;28;20213;-92
2023/12/06 01:13:04;;;;;;;1.50;0.80;;;;;;;6.62;97.91;97465.91;4188853;28;20304;-91
2023/12/06 01:15:09;;;;;;;1.80;0.95;;;;;;;6.57;98.57;97467.97;4187404;28;20217;-91
2023/12/06 01:17:12;;;;;;;1.58;0.82;;;;;;;6.48;97.86;97468.53;4177479;28;20293;-91
2023/12/06 01:19:16;;;;;;;1.33;0.80;;;;;;;6.45;98.85;97473.91;4175514;28;20238;-89
2023/12/06 01:21:21;;;;;;;1.75;0.90;;;;;;;6.37;99.19;97468.34;4177767;28;20239;-92
2023/12/06 01:23:24;;;;;;;1.40;0.90;;;;;;;6.34;99.20;97478.06;4188503;28;20711;-90
2023/12/06 01:25:28;;;;;;;1.80;0.90;;;;;;;6.37;98.93;97478.69;4186752;28;20555;-92
2023/12/06 01:27:31;;;;;;;1.60;0.93;;;;;;;6.41;99.15;97480.19;4198738;28;20603;-92
2023/12/06 01:29:35;;;;;;;1.55;0.90;;;;;;;6.40;99.20;97485.47;4187959;28;20761;-91
2023/12/06 01:31:38;;;;;;;1.42;0.80;;;;;;;6.45;99.18;97488.59;4190780;28;20232;-90
2023/12/06 01:33:42;;;;;;;1.55;0.80;;;;;;;6.46;99.26;97493.69;4190912;28;20293;-92
2023/12/06 01:35:45;;;;;;;1.73;0.70;;;;;;;6.45;99.16;97502.38;4185704;28;20688;-91
2023/12/06 01:37:49;;;;;;;1.30;0.70;;;;;;;6.35;99.18;97490.91;4170543;28;20199;-92
2023/12/06 01:39:52;;;;;;;1.40;0.70;;;;;;;6.30;99.24;97502.47;4169863;28;20294;-91
2023/12/06 01:41:56;;;;;;;1.50;0.70;;;;;;;6.23;99.92;97498.63;4188118;28;20206;-92
2023/12/06 01:44:00;;;;;;;1.55;0.75;;;;;;;6.15;100.00;97496.50;4170809;28;20199;-91
2023/12/06 01:46:03;;;;;;;1.30;0.70;;;;;;;6.09;100.00;97501.22;4172205;28;20207;-92
2023/12/06 01:48:06;;;;;;;1.55;0.70;;;;;;;6.07;100.00;97494.44;4188949;28;20220;-89
2023/12/06 01:50:11;;;;;;;1.10;0.60;;;;;;;6.05;100.00;97496.31;4183532;28;20687;-92
2023/12/06 01:52:14;;;;;;;1.40;0.60;;;;;;;5.97;100.00;97501.09;4174607;28;20633;-88
2023/12/06 01:54:19;;;;;;;1.40;0.70;;;;;;;5.93;100.00;97494.44;4201458;28;20255;-92
2023/12/06 01:56:21;;;;;;;1.75;0.90;;;;;;;5.95;100.00;97495.19;4185809;28;20297;-92
2023/12/06 01:58:24;;;;;;;1.40;0.70;;;;;;;5.94;100.00;97496.09;4171175;28;20195;-92
2023/12/06 02:00:28;;;;;;;1.30;0.70;;;;;;;5.98;100.00;97502.75;4175084;28;20258;-91
2023/12/06 02:02:31;;;;;;;1.65;0.90;;;;;;;6.03;100.00;97506.75;4175415;28;20220;-92
2023/12/06 02:04:35;;;;;;;2.47;0.80;;;;;;;6.08;100.00;97501.31;4190937;28;20704;-93
2023/12/06 02:06:38;;;;;;;1.48;0.68;;;;;;;6.14;100.00;97505.16;4188456;28;20225;-93
2023/12/06 02:08:42;;;;;;;1.58;0.90;;;;;;;6.21;100.00;97514.25;4182202;28;20344;-89
2023/12/06 02:10:48;;;;;;;1.20;0.70;;;;;;;6.27;100.00;97516.47;4188531;28;20283;-93
2023/12/06 02:12:50;;;;;;;1.40;0.73;;;;;;;6.30;100.00;97508.50;4173151;28;20257;-93
2023/12/06 02:14:53;;;;;;;1.33;0.80;;;;;;;6.34;100.00;97517.72;4172364;28;20514;-91
2023/12/06 02:16:55;;;;;;;1.60;1.00;;;;;;;6.37;100.00;97516.72;4185559;28;20208;-90
2023/12/06 02:18:59;;;;;;;1.20;0.60;;;;;;;6.41;100.00;97513.84;4174378;28;20214;-93
2023/12/06 02:21:04;;;;;;;1.80;0.85;;;;;;;6.43;100.00;97519.75;4190912;28;20209;-91
2023/12/06 02:23:09;;;;;;;1.20;0.65;;;;;;;6.45;100.00;97519.66;4170695;28;20203;-92
2023/12/06 02:25:15;;;;;;;1.50;0.90;;;;;;;6.47;100.00;97517.84;4187575;28;20753;-92
2023/12/06 02:27:18;;;;;;;1.48;0.90;;;;;;;6.47;100.00;97520.44;4193032;28;20211;-92
2023/12/06 02:29:21;;;;;;;1.42;0.70;;;;;;;6.48;100.00;97524.66;4172424;28;20230;-93
2023/12/06 02:31:24;;;;;;;1.02;0.60;;;;;;;6.48;100.00;97520.34;4177131;28;20238;-92
2023/12/06 02:33:28;;;;;;;1.60;0.70;;;;;;;6.47;99.67;97523.84;4185252;28;20300;-92
2023/12/06 02:35:35;;;;;;;1.10;0.60;;;;;;;6.47;100.00;97523.84;4189137;28;20214;-93
2023/12/06 02:37:39;;;;;;;2.75;0.70;;;;;;;6.50;100.00;97523.66;4194245;28;20225;-92
2023/12/06 02:39:42;;;;;;;1.70;0.70;;;;;;;6.52;100.00;97526.16;4189515;28;20672;-91
2023/12/06 02:41:47;;;;;;;1.10;0.60;;;;;;;6.56;99.56;97525.03;4193282;28;20212;-91
2023/12/06 02:43:50;;;;;;;1.20;0.50;;;;;;;6.59;99.83;97528.25;4189143;28;20243;-91
2023/12/06 02:45:53;;;;;;;2.10;0.80;;;;;;;6.60;99.84;97517.81;4171287;28;20628;-93
2023/12/06 02:47:56;;;;;;;1.30;0.50;;;;;;;6.61;99.52;97511.72;4190031;28;20239;-94
2023/12/06 02:50:00;;;;;;;1.73;0.60;;;;;;;6.62;99.45;97518.53;4187963;28;20207;-92
2023/12/06 02:52:04;;;;;;;1.40;0.70;;;;;;;6.62;99.11;97515.13;4175961;28;20558;-92
2023/12/06 02:54:07;;;;;;;1.60;0.70;;;;;;;6.64;99.45;97513.25;4190151;28;20300;-92
2023/12/06 02:56:10;;;;;;;1.13;0.60;;;;;;;6.64;98.88;97521.03;4183734;28;20207;-92
2023/12/06 02:58:15;;;;;;;1.10;0.60;;;;;;;6.66;99.58;97514.00;4177778;28;20226;-92
2023/12/06 03:00:19;;;;;;;4.22;0.77;;;;;;;6.69;98.55;97513.78;4193966;28;20205;-90
2023/12/06 03:02:22;;;;;;;2.72;0.65;;;;;;;6.71;99.38;97517.16;4192135;28;20204;-91
2023/12/06 03:04:25;;;;;;;1.30;0.73;;;;;;;6.72;99.08;97516.19;4192122;28;20221;-91
2023/12/06 03:06:28;;;;;;;1.50;0.60;;;;;;;6.72;98.79;97517.06;4190556;28;20611;-93
2023/12/06 03:08:31;;;;;;;1.40;0.60;;;;;;;6.70;99.19;97510.28;4176297;28;20207;-91
2023/12/06 03:10:35;;;;;;;1.33;0.73;;;;;;;6.71;99.06;97514.56;4190325;28;20203;-92
2023/12/06 03:12:38;;;;;;;1.13;0.50;;;;;;;6.73;98.92;97507.50;4174304;28;20261;-93
2023/12/06 03:14:42;;;;;;;1.35;0.77;;;;;;;6.74;99.23;97514.38;4177065;28;20266;-92
2023/12/06 03:16:45;;;;;;;1.30;0.60;;;;;;;6.74;98.83;97522.13;4171490;28;20207;-93
2023/12/06 03:18:47;;;;;;;1.30;0.75;;;;;;;6.74;98.70;97507.41;4190560;28;20197;-93
2023/12/06 03:20:51;;;;;;;2.25;0.60;;;;;;;6.74;99.18;97512.59;4193360;28;20231;-88
2023/12/06 03:22:54;;;;;;;1.50;0.65;;;;;;;6.75;99.01;97518.59;4186965;28;20202;-92
2023/12/06 03:24:57;;;;;;;1.17;0.52;;;;;;;6.78;98.52;97514.06;4188911;28;20225;-92
2023/12/06 03:27:01;;;;;;;1.27;0.60;;;;;;;6.80;98.26;97519.16;4191309;28;20218;-93
2023/12/06 03:29:04;;;;;;;1.95;0.80;;;;;;;6.80;99.07;97512.22;4179302;28;20290;-93
2023/12/06 03:31:09;;;;;;;3.28;0.60;;;;;;;6.81;99.22;97519.06;4191745;28;20275;-91
2023/12/06 03:33:12;;;;;;;1.30;0.70;;;;;;;6.81;98.46;97518.22;4197406;28;20225;-91
2023/12/06 03:35:15;;;;;;;1.30;0.70;;;;;;;6.80;98.17;97519.16;4187393;28;20232;-91
2023/12/06 03:37:18;;;;;;;2.40;0.80;;;;;;;6.82;98.44;97525.06;4191684;28;20207;-90
2023/12/06 03:39:23;;;;;;;1.20;0.57;;;;;;;6.83;97.92;97518.97;4179966;28;20346;-94
2023/12/06 03:41:25;;;;;;;1.52;0.65;;;;;;;6.82;98.14;97518.13;4169943;28;20652;-93
2023/12/06 03:43:29;;;;;;;1.50;0.65;;;;;;;6.83;97.65;97521.56;4175967;28;20752;-91
2023/12/06 03:45:32;;;;;;;1.45;0.82;;;;;;;6.82;98.86;97518.13;4196619;28;20241;-92
2023/12/06 03:47:37;;;;;;;1.77;0.90;;;;;;;6.83;98.05;97517.19;4192676;28;20596;-90
2023/12/06 03:49:40;;;;;;;1.98;1.02;;;;;;;6.82;98.59;97525.06;4179569;28;20220;-92
2023/12/06 03:51:42;;;;;;;2.97;0.80;;;;;;;6.82;98.21;97525.06;4188150;28;20304;-91
2023/12/06 03:53:45;;;;;;;2.65;0.80;;;;;;;6.79;98.63;97526.09;4191168;28;20216;-90
2023/12/06 03:55:49;;;;;;;1.98;0.80;;;;;;;6.80;98.78;97527.75;4189330;28;20250;-91
2023/12/06 03:57:52;;;;;;;1.75;0.95;;;;;;;6.81;98.20;97526.84;4189446;28;20201;-92
2023/12/06 03:59:58;;;;;;;1.48;0.85;;;;;;;6.81;98.25;97520.81;4177998;28;20210;-88
2023/12/06 04:02:02;;;;;;;1.40;0.75;;;;;;;6.82;97.89;97519.88;4194985;28;20213;-89
2023/12/06 04:04:05;;;;;;;1.50;0.65;;;;;;;6.82;98.07;97522.47;4179489;28;20200;-92
2023/12/06 04:06:09;;;;;;;1.67;0.80;;;;;;;6.85;98.56;97532.66;4192808;28;20217;-92
2023/12/06 04:08:12;;;;;;;2.10;0.90;;;;;;;6.85;98.61;97530.06;4194477;28;20206;-90
2023/12/06 04:10:14;;;;;;;1.98;0.80;;;;;;;6.86;98.45;97522.19;4187319;28;20581;-92
2023/12/06 04:12:18;;;;;;;1.80;0.90;;;;;;;6.89;98.10;97537.56;4180471;28;20207;-92
2023/12/06 04:14:21;;;;;;;1.77;0.75;;;;;;;6.86;98.74;97522.19;4174248;28;20716;-92
2023/12/06 04:16:24;;;;;;;1.35;0.80;;;;;;;6.87;97.76;97523.00;4188497;28;20223;-91
2023/12/06 04:18:27;;;;;;;1.70;0.85;;;;;;;6.88;98.70;97532.47;4190125;28;20300;-92
2023/12/06 04:20:32;;;;;;;1.63;0.80;;;;;;;6.86;97.99;97526.56;4175553;28;20207;-91
2023/12/06 04:22:35;;;;;;;1.30;0.65;;;;;;;6.84;97.63;97528.38;4190211;28;20209;-92
2023/12/06 04:24:38;;;;;;;1.30;0.70;;;;;;;6.82;98.32;97531.06;4171150;28;20211;-90
2023/12/06 04:26:41;;;;;;;1.30;0.77;;;;;;;6.82;98.17;97525.91;4183320;28;20239;-92
2023/12/06 04:28:47;;;;;;;1.45;0.90;;;;;;;6.84;98.65;97533.56;4189398;28;20209;-92
2023/12/06 04:30:50;;;;;;;1.35;0.75;;;;;;;6.84;98.03;97533.56;4190488;28;20300;-92
2023/12/06 04:32:53;;;;;;;1.30;0.80;;;;;;;6.85;98.25;97535.25;4173029;28;20207;-90
2023/12/06 04:34:57;;;;;;;1.20;0.60;;;;;;;6.86;98.39;97540.34;4197335;28;20261;-90
2023/12/06 04:37:01;;;;;;;2.00;0.85;;;;;;;6.87;98.12;97543.75;4189801;28;20213;-92
2023/12/06 04:39:05;;;;;;;1.10;0.60;;;;;;;6.88;98.59;97545.41;4175344;28;20216;-90
2023/12/06 04:41:08;;;;;;;1.75;0.80;;;;;;;6.89;98.30;97547.91;4188698;28;20675;-90
2023/12/06 04:43:11;;;;;;;1.30;0.70;;;;;;;6.91;98.48;97546.06;4183316;28;20287;-90
2023/12/06 04:45:13;;;;;;;1.48;0.85;;;;;;;6.93;98.04;97551.13;4185412;28;20202;-94
2023/12/06 04:47:16;;;;;;;1.80;0.80;;;;;;;6.92;97.56;97547.72;4188179;28;20203;-91
2023/12/06 04:49:20;;;;;;;1.55;0.77;;;;;;;6.91;98.36;97553.81;4172082;28;20274;-92
2023/12/06 04:51:23;;;;;;;1.60;0.60;;;;;;;6.91;98.25;97551.22;4195044;28;20201;-93
2023/12/06 04:53:27;;;;;;;1.40;0.73;;;;;;;6.91;97.58;97548.63;4195779;28;20215;-92
2023/12/06 04:55:31;;;;;;;2.50;0.65;;;;;;;6.93;97.28;97553.72;4174354;28;20907;-92
2023/12/06 04:57:34;;;;;;;1.42;0.60;;;;;;;6.93;98.47;97554.59;4188436;28;20755;-92
2023/12/06 04:59:37;;;;;;;1.23;0.60;;;;;;;6.96;98.23;97561.31;4186176;28;20203;-93
2023/12/06 05:01:41;;;;;;;1.20;0.73;;;;;;;6.96;97.26;97563.91;4188217;28;20652;-92
2023/12/06 05:03:44;;;;;;;1.40;0.80;;;;;;;6.94;97.96;97558.00;4192479;28;20295;-93
2023/12/06 05:05:47;;;;;;;1.25;0.57;;;;;;;6.95;97.93;97563.09;4184102;28;20222;-91
2023/12/06 05:07:50;;;;;;;1.30;0.80;;;;;;;6.96;97.48;97563.91;4174687;28;20204;-93
2023/12/06 05:09:55;;;;;;;2.03;0.90;;;;;;;6.94;98.20;97558.00;4190192;28;20297;-92
2023/12/06 05:11:59;;;;;;;1.20;0.60;;;;;;;6.96;98.07;97563.91;4187808;28;20209;-92
2023/12/06 05:14:02;;;;;;;1.50;0.80;;;;;;;6.95;98.10;97562.25;4191289;28;20332;-93
2023/12/06 05:16:06;;;;;;;1.48;0.77;;;;;;;6.95;96.92;97572.63;4189131;28;20697;-91
2023/12/06 05:18:09;;;;;;;1.50;0.80;;;;;;;6.96;97.32;97567.34;4173364;28;20785;-90
2023/12/06 05:20:13;;;;;;;1.13;0.52;;;;;;;6.95;97.75;97564.84;4176179;28;20627;-93
2023/12/06 05:22:16;;;;;;;1.40;0.60;;;;;;;6.96;97.08;97572.53;4208713;28;20201;-95
2023/12/06 05:24:20;;;;;;;1.40;0.90;;;;;;;6.95;97.41;97567.44;4188668;28;20719;-91
2023/12/06 05:26:26;;;;;;;1.40;0.70;;;;;;;6.93;97.05;97570.13;4192162;28;20226;-93
2023/12/06 05:28:35;;;;;;;1.30;0.70;;;;;;;6.93;97.71;97569.28;4187788;28;20202;-92
2023/12/06 05:30:37;;;;;;;2.70;0.85;;;;;;;6.94;96.58;97573.56;4193549;28;20210;-93
2023/12/06 05:32:43;;;;;;;1.60;0.70;;;;;;;6.91;97.85;97576.34;4175141;28;20206;-91
2023/12/06 05:34:47;;;;;;;1.67;0.73;;;;;;;6.91;97.56;97576.34;4182388;28;20228;-93
2023/12/06 05:36:50;;;;;;;1.40;0.80;;;;;;;6.92;97.70;97578.00;4193037;28;20609;-92
2023/12/06 05:38:52;;;;;;;1.20;0.63;;;;;;;6.94;96.90;97576.97;4196863;28;20598;-92
2023/12/06 05:40:57;;;;;;;1.90;0.90;;;;;;;6.96;97.29;97576.88;4183595;28;20217;-91
2023/12/06 05:43:02;;;;;;;1.88;0.80;;;;;;;6.97;97.86;97574.19;4191984;28;20210;-93
2023/12/06 05:45:06;;;;;;;1.50;0.85;;;;;;;6.99;96.52;97574.09;4174465;28;20206;-93
2023/12/06 05:47:08;;;;;;;1.45;0.82;;;;;;;6.95;97.47;97580.41;4187896;28;20217;-94
2023/12/06 05:49:11;;;;;;;1.25;0.68;;;;;;;6.96;97.50;97576.88;4185905;28;20792;-93
2023/12/06 05:51:15;;;;;;;1.55;0.77;;;;;;;6.97;97.70;97570.75;4191989;28;20252;-93
2023/12/06 05:53:17;;;;;;;1.80;0.90;;;;;;;6.93;97.01;97571.88;4173517;28;20211;-93
2023/12/06 05:55:20;;;;;;;1.20;0.50;;;;;;;6.86;96.29;97570.59;4192610;28;20207;-92
2023/12/06 05:57:23;;;;;;;1.75;0.80;;;;;;;6.87;97.29;97573.09;4188809;28;20223;-94
2023/12/06 05:59:29;;;;;;;2.08;0.70;;;;;;;6.85;96.57;97574.13;4175744;28;20202;-92
2023/12/06 06:01:33;;;;;;;1.30;0.70;;;;;;;6.84;96.55;97575.88;4169641;28;20202;-93
2023/12/06 06:03:36;;;;;;;1.00;0.50;;;;;;;6.84;96.66;97572.44;4173520;28;20669;-89
2023/12/06 06:05:40;;;;;;;1.60;0.70;;;;;;;6.84;97.67;97575.03;4186116;28;20205;-90
2023/12/06 06:07:43;;;;;;;1.20;0.60;;;;;;;6.85;96.52;97584.47;4193606;28;20304;-88
2023/12/06 06:09:48;;;;;;;1.70;0.85;;;;;;;6.87;96.91;97585.22;4188189;28;20809;-92
2023/12/06 06:12:02;;;;;;;2.05;0.90;;;;;;;6.88;97.43;97592.06;4187889;28;20671;-92
2023/12/06 06:14:05;;;;;;;1.55;0.90;;;;;;;6.90;96.90;97587.63;4185157;28;20209;-93
2023/12/06 06:16:16;;;;;;;1.75;0.88;;;;;;;6.92;96.29;97588.38;4181634;28;20205;-92
2023/12/06 06:18:19;;;;;;;3.28;1.45;;;;;;;6.93;96.83;97590.88;4190255;28;20206;-93
2023/12/06 06:20:22;;;;;;;2.78;1.40;;;;;;;6.95;97.44;97593.38;4173730;28;20212;-92
2023/12/06 06:22:25;;;;;;;1.73;0.85;;;;;;;6.97;97.64;97596.69;4190303;28;20247;-93
2023/12/06 06:24:28;;;;;;;2.50;0.80;;;;;;;7.00;97.63;97593.91;4209636;28;20243;-93
2023/12/06 06:26:31;;;;;;;1.50;0.90;;;;;;;6.96;97.34;97595.00;4212446;28;20214;-92
2023/12/06 06:28:35;;;;;;;1.50;0.80;;;;;;;6.87;96.67;97587.81;4186719;28;20236;-91
2023/12/06 06:30:38;;;;;;;2.08;0.93;;;;;;;6.76;96.29;97591.06;4187953;28;20206;-91
2023/12/06 06:32:42;;;;;;;1.85;0.80;;;;;;;6.70;97.33;97593.19;4192311;28;20716;-93
2023/12/06 06:34:46;;;;;;;1.50;0.75;;;;;;;6.71;96.58;97597.47;4206974;28;20205;-92
2023/12/06 06:36:49;;;;;;;1.63;0.70;;;;;;;6.67;96.63;97596.78;4170590;28;20227;-93
2023/12/06 06:38:53;;;;;;;1.35;0.75;;;;;;;6.66;97.02;97596.88;4172531;28;20823;-92
2023/12/06 06:40:56;;;;;;;1.80;1.10;;;;;;;6.58;96.92;97588.75;4186598;28;20310;-90
2023/12/06 06:43:00;;;;;;;2.65;0.68;;;;;;;6.52;97.12;97596.06;4185698;28;20300;-91
2023/12/06 06:45:05;;;;;;;2.10;0.70;;;;;;;6.53;97.95;97600.34;4187305;28;20290;-90
2023/12/06 06:47:08;;;;;;;1.30;0.70;;;;;;;6.55;97.30;97606.25;4189947;28;20194;-91
2023/12/06 06:49:13;;;;;;;1.60;0.73;;;;;;;6.60;98.15;97607.66;4189216;28;20252;-92
2023/12/06 06:51:17;;;;;;;1.60;0.88;;;;;;;6.60;97.43;97602.47;4183759;28;20239;-92
2023/12/06 06:53:20;;;;;;;1.77;0.80;;;;;;;6.62;97.31;97610.97;4192546;28;20298;-91
2023/12/06 06:55:23;;;;;;;1.30;0.90;;;;;;;6.64;98.24;97609.09;4192891;28;20206;-91
2023/12/06 06:57:28;;;;;;;2.33;0.90;;;;;;;6.61;97.35;97617.06;4175945;28;20210;-93
2023/12/06 06:59:31;;;;;;;2.45;1.38;;;;;;;6.62;98.43;97614.38;4191860;28;20255;-92
2023/12/06 07:01:35;;;;;;;2.33;0.95;;;;;;;6.67;97.85;97621.88;4186586;28;20644;-91
2023/12/06 07:03:38;;;;;;;1.92;1.20;;;;;;;6.66;97.77;97623.66;4186747;28;20217;-92
2023/12/06 07:05:42;;;;;;;2.20;1.00;;;;;;;6.67;98.33;97624.47;4189866;28;20214;-90
2023/12/06 07:07:45;;;;;;;2.60;1.30;;;;;;;6.69;97.77;97627.78;4166817;28;20209;-89
2023/12/06 07:09:49;;;;;;;2.63;1.10;;;;;;;6.71;98.29;97626.78;4188450;28;20301;-91
2023/12/06 07:11:53;;;;;;;1.83;1.00;;;;;;;6.71;97.69;97629.38;4171265;28;20210;-92
2023/12/06 07:13:56;;;;;;;1.73;1.10;;;;;;;6.72;97.68;97631.03;4205607;28;20213;-90
2023/12/06 07:16:03;;;;;;;2.05;0.98;;;;;;;6.76;98.62;97635.09;4188303;28;20208;-87
2023/12/06 07:18:06;;;;;;;1.60;1.10;;;;;;;6.79;97.62;97642.69;4191268;28;20259;-90
2023/12/06 07:20:11;;;;;;;1.80;1.00;;;;;;;6.82;96.88;97642.50;4189877;28;20206;-92
2023/12/06 07:22:15;;;;;;;2.08;1.30;;;;;;;6.85;97.72;97642.31;4187495;28;20301;-91
2023/12/06 07:24:20;;;;;;;3.00;1.35;;;;;;;6.84;96.86;97642.41;4190699;28;20206;-90
2023/12/06 07:26:23;;;;;;;2.10;1.00;;;;;;;6.84;96.59;97652.78;4209834;28;20292;-91
2023/12/06 07:28:27;;;;;;;2.03;1.27;;;;;;;6.88;97.39;97659.44;4189207;28;20201;-89
2023/12/06 07:30:31;;;;;;;3.17;1.10;;;;;;;6.92;96.47;97658.34;4188566;28;20215;-90
2023/12/06 07:32:34;;;;;;;2.30;1.30;;;;;;;6.95;97.82;97658.97;4174618;28;20730;-91
2023/12/06 07:34:52;;;;;;;1.85;1.25;;;;;;;6.99;98.00;97662.22;4189291;28;20330;-90
2023/12/06 07:36:59;;;;;;;1.95;1.10;;;;;;;7.00;97.51;97672.47;4180638;28;20590;-90
2023/12/06 07:39:05;;;;;;;2.25;1.20;;;;;;;7.02;97.25;97677.56;4189092;28;20605;-89
2023/12/06 07:41:08;;;;;;;2.08;0.95;;;;;;;7.04;96.47;97676.56;4188332;28;20765;-90
2023/12/06 07:43:12;;;;;;;2.05;1.13;;;;;;;7.05;96.55;97683.41;4168541;28;20260;-90
2023/12/06 07:45:15;;;;;;;2.40;1.15;;;;;;;7.06;96.78;97680.72;4189833;28;20245;-88
2023/12/06 07:47:18;;;;;;;1.35;0.93;;;;;;;7.06;97.40;97685.91;4192563;28;20681;-91
2023/12/06 07:49:24;;;;;;;1.75;1.13;;;;;;;7.05;96.58;97686.84;4185934;28;20668;-90
2023/12/06 07:51:27;;;;;;;2.10;1.40;;;;;;;7.10;96.65;97691.75;4185884;28;20194;-90
2023/12/06 07:53:30;;;;;;;1.90;1.15;;;;;;;7.11;96.10;97693.41;4188967;28;20198;-87
2023/12/06 07:55:35;;;;;;;2.22;1.48;;;;;;;7.03;96.09;97689.63;4173499;28;20257;-90
2023/12/06 07:57:38;;;;;;;3.42;1.30;;;;;;;6.98;97.08;97679.53;4189657;28;20274;-89
2023/12/06 07:59:43;;;;;;;3.25;1.60;;;;;;;6.95;96.65;97692.69;4174002;28;20249;-89
2023/12/06 08:01:45;;;;;;;5.28;2.42;;;;;;;6.98;96.39;97702.84;4189139;28;20290;-91
2023/12/06 08:03:48;;;;;;;4.72;3.00;;;;;;;7.01;95.96;97707.03;4180714;28;20788;-88
2023/12/06 08:05:52;;;;;;;4.13;1.90;;;;;;;7.02;96.70;97699.13;4187874;28;20328;-88
2023/12/06 08:07:55;;;;;;;3.05;2.00;;;;;;;7.04;96.70;97702.50;4184867;28;20582;-89
2023/12/06 08:09:58;;;;;;;2.83;2.17;;;;;;;7.06;95.72;97703.22;4176638;28;20199;-89
2023/12/06 08:12:03;;;;;;;3.45;2.00;;;;;;;7.07;96.77;97712.69;4187734;28;20208;-86
2023/12/06 08:14:06;;;;;;;3.80;2.75;;;;;;;7.06;96.00;97713.59;4170640;28;20297;-90
2023/12/06 08:16:09;;;;;;;3.38;2.63;;;;;;;7.06;96.35;97705.81;4174910;28;20210;-89
2023/12/06 08:18:13;;;;;;;3.70;2.88;;;;;;;7.06;96.49;97711.81;4186096;28;20785;-91
2023/12/06 08:20:16;;;;;;;3.45;2.67;;;;;;;7.08;96.62;97714.31;4185561;28;20208;-86
2023/12/06 08:22:20;;;;;;;5.07;3.45;;;;;;;7.10;96.19;97713.31;4164576;28;20220;-85
2023/12/06 08:24:23;;;;;;;7.00;5.00;;;;;;;7.10;95.89;97712.50;4183425;28;20211;-87
2023/12/06 08:26:26;;;;;;;8.68;5.30;;;;;;;7.08;95.54;97715.19;4171658;28;20198;-90
2023/12/06 08:28:33;;;;;;;10.20;6.97;;;;;;;7.10;96.44;97713.31;4191139;28;20202;-88
2023/12/06 08:30:37;;;;;;;8.55;6.03;;;;;;;7.10;96.67;97723.69;4188791;28;20209;-89
2023/12/06 08:32:41;;;;;;;7.03;5.80;;;;;;;7.10;95.60;97718.50;4185333;28;20254;-90
2023/12/06 08:34:43;;;;;;;10.27;6.03;;;;;;;7.01;95.50;97717.41;4185481;28;20206;-91
2023/12/06 08:36:47;;;;;;;8.48;6.47;;;;;;;7.00;95.26;97723.50;4183797;28;20240;-90
2023/12/06 08:38:50;;;;;;;9.35;6.45;;;;;;;6.99;95.65;97724.41;4187376;28;20224;-90
2023/12/06 08:40:53;;;;;;;9.00;5.97;;;;;;;6.98;96.00;97727.97;4186588;28;20260;-90
2023/12/06 08:42:56;;;;;;;13.10;7.13;;;;;;;6.97;95.70;97721.91;4203069;28;20193;-91
2023/12/06 08:45:01;;;;;;;9.60;6.35;;;;;;;6.94;95.62;97729.88;4192338;28;20617;-90
2023/12/06 08:47:04;;;;;;;8.48;6.68;;;;;;;6.97;96.00;97741.84;4166904;28;20290;-91
2023/12/06 08:49:08;;;;;;;10.00;7.43;;;;;;;6.97;95.63;97731.47;4184168;28;20207;-90
2023/12/06 08:51:11;;;;;;;9.52;7.90;;;;;;;6.97;95.22;97737.47;4201127;28;20784;-91
2023/12/06 08:53:13;;;;;;;9.45;7.72;;;;;;;6.93;94.71;97743.78;4181224;28;20194;-90
2023/12/06 08:55:17;;;;;;;10.55;7.40;;;;;;;6.87;94.90;97740.69;4189531;28;20219;-88
2023/12/06 08:57:19;;;;;;;9.50;7.85;;;;;;;6.90;95.06;97746.56;4182524;28;20202;-89
2023/12/06 08:59:23;;;;;;;9.98;7.80;;;;;;;6.86;95.82;97746.81;4170782;28;20239;-91
2023/12/06 09:01:28;;;;;;;11.20;8.65;;;;;;;6.88;95.80;97757.94;4187600;28;20237;-90
2023/12/06 09:03:31;;;;;;;9.48;7.18;;;;;;;6.87;94.96;97754.50;4185367;28;20202;-91
2023/12/06 09:05:35;;;;;;;10.30;8.25;;;;;;;6.87;95.14;97762.28;4183956;28;20206;-89
2023/12/06 09:07:38;;;;;;;10.43;7.95;;;;;;;6.89;95.11;97760.44;4184039;28;20215;-89
2023/12/06 09:09:41;;;;;;;9.93;8.30;;;;;;;6.92;95.86;97767.19;4188437;28;20613;-91
2023/12/06 09:11:45;;;;;;;14.48;8.60;;;;;;;6.91;94.96;97765.53;4186366;28;20305;-89
2023/12/06 09:13:52;;;;;;;12.15;8.45;;;;;;;6.93;95.43;97768.84;4168049;28;20774;-88
2023/12/06 09:15:55;;;;;;;12.15;8.63;;;;;;;6.95;95.88;97785.97;4181992;28;20300;-91
2023/12/06 09:18:00;;;;;;;12.70;7.60;;;;;;;6.92;95.56;97780.16;4165270;28;20316;-89
2023/12/06 09:20:04;;;;;;;9.40;7.50;;;;;;;6.92;94.65;97793.13;4186860;28;20247;-89
2023/12/06 09:22:07;;;;;;;8.25;6.50;;;;;;;6.81;94.49;97791.16;4184540;28;20207;-88
2023/12/06 09:24:11;;;;;;;9.50;7.80;;;;;;;6.77;95.26;97791.41;4185199;28;20285;-90
2023/12/06 09:26:15;;;;;;;7.18;5.75;;;;;;;6.78;94.46;97793.06;4173706;28;20762;-86
2023/12/06 09:28:18;;;;;;;8.52;6.25;;;;;;;6.74;94.67;97801.97;4186214;28;20202;-90
2023/12/06 09:30:25;;;;;;;8.88;6.68;;;;;;;6.66;95.34;97798.94;4202871;28;20319;-90
2023/12/06 09:32:27;;;;;;;7.50;6.00;;;;;;;6.60;94.55;97810.53;4188399;28;20225;-89
2023/12/06 09:34:32;;;;;;;9.25;7.20;;;;;;;6.61;95.03;97811.34;4167820;28;20707;-87
2023/12/06 09:36:42;;;;;;;7.57;6.20;;;;;;;6.62;95.12;97805.25;4188580;28;20206;-88
2023/12/06 09:38:44;;;;;;;8.88;6.75;;;;;;;6.58;95.65;97801.16;4187506;28;20218;-90
2023/12/06 09:40:48;;;;;;;10.63;7.03;;;;;;;6.55;95.45;97798.75;4186504;28;20201;-89
2023/12/06 09:42:54;;;;;;;8.13;6.30;;;;;;;6.55;95.43;97806.50;4186851;28;20308;-90
2023/12/06 09:44:57;;;;;;;7.45;6.07;;;;;;;6.50;95.43;97803.34;4188279;28;20214;-90
2023/12/06 09:47:00;;;;;;;7.68;6.03;;;;;;;6.51;96.39;97799.84;4183209;28;20266;-89
2023/12/06 09:49:03;;;;;;;9.30;6.25;;;;;;;6.52;96.44;97817.03;4187108;28;20205;-90